createdAt,value
2018-06-10T00:00:36.455Z,96.65
2018-06-10T00:01:16.967Z,96.55
2018-06-10T00:01:57.455Z,95.97
2018-06-10T00:02:37.947Z,96.07
2018-06-10T00:03:18.439Z,96.17
2018-06-10T00:03:58.910Z,96.55
2018-06-10T00:04:39.419Z,96.99
2018-06-10T00:05:19.935Z,97.47
2018-06-10T00:06:00.415Z,97.28
2018-06-10T00:06:40.930Z,97.09
2018-06-10T00:07:21.653Z,97.38
2018-06-10T00:08:02.102Z,97.18
2018-06-10T00:08:42.720Z,97.18
2018-06-10T00:09:23.069Z,98.05
2018-06-10T00:10:03.573Z,98.44
2018-06-10T00:10:44.059Z,97.47
2018-06-10T00:11:24.542Z,97.38
2018-06-10T00:12:05.074Z,97.47
2018-06-10T00:12:45.529Z,97.38
2018-06-10T00:13:26.061Z,97.28
2018-06-10T00:14:06.967Z,97.67
2018-06-10T00:14:47.264Z,97.86
2018-06-10T00:15:27.747Z,97.67
2018-06-10T00:16:08.270Z,97.77
2018-06-10T00:16:48.763Z,97.86
2018-06-10T00:17:29.269Z,97.67
2018-06-10T00:18:09.808Z,97.77
2018-06-10T00:18:50.251Z,98.05
2018-06-10T00:19:30.751Z,98.35
2018-06-10T00:20:11.289Z,97.67
2018-06-10T00:20:51.803Z,97.77
2018-06-10T00:21:32.295Z,97.86
2018-06-10T00:22:12.753Z,97.72
2018-06-10T00:22:53.264Z,98.2
2018-06-10T00:23:33.795Z,97.91
2018-06-10T00:24:14.279Z,98.49
2018-06-10T00:24:55.056Z,98
2018-06-10T00:25:35.553Z,98.1
2018-06-10T00:26:16.040Z,97.52
2018-06-10T00:26:56.556Z,97.96
2018-06-10T00:27:37.051Z,97.91
2018-06-10T00:28:17.542Z,97.86
2018-06-10T00:28:57.995Z,97.28
2018-06-10T00:29:38.502Z,97.38
2018-06-10T00:30:19.002Z,96.8
2018-06-10T00:30:59.514Z,96.8
2018-06-10T00:31:40.007Z,96.51
2018-06-10T00:32:20.557Z,96.51
2018-06-10T00:33:01.042Z,96.6
2018-06-10T00:33:41.519Z,96.51
2018-06-10T00:34:22.011Z,97.28
2018-06-10T00:35:02.497Z,97.18
2018-06-10T00:35:43.000Z,97.33
2018-06-10T00:36:23.519Z,97.72
2018-06-10T00:37:04.058Z,97.72
2018-06-10T00:37:44.568Z,97.62
2018-06-10T00:38:25.248Z,98.2
2018-06-10T00:39:05.653Z,97.23
2018-06-10T00:39:46.168Z,97.62
2018-06-10T00:40:26.667Z,97.62
2018-06-10T00:41:07.160Z,98.2
2018-06-10T00:41:47.649Z,98.58
2018-06-10T00:42:28.159Z,98.1
2018-06-10T00:43:08.645Z,98.1
2018-06-10T00:43:49.169Z,97.52
2018-06-10T00:44:29.643Z,97.62
2018-06-10T00:45:10.178Z,97.81
2018-06-10T00:45:50.679Z,97.81
2018-06-10T00:46:31.213Z,97.72
2018-06-10T00:47:11.703Z,97.23
2018-06-10T00:47:52.265Z,98.1
2018-06-10T00:48:32.696Z,98.1
2018-06-10T00:49:13.219Z,97.81
2018-06-10T00:49:53.712Z,97.52
2018-06-10T00:50:34.207Z,97.23
2018-06-10T00:51:14.667Z,97.62
2018-06-10T00:51:55.220Z,97.72
2018-06-10T00:52:35.707Z,97.62
2018-06-10T00:53:16.237Z,98.39
2018-06-10T00:53:56.704Z,98
2018-06-10T00:54:37.216Z,97.42
2018-06-10T00:55:17.723Z,98
2018-06-10T00:55:58.182Z,97.23
2018-06-10T00:56:38.733Z,97.33
2018-06-10T00:57:19.226Z,97.04
2018-06-10T00:57:59.711Z,97.42
2018-06-10T00:58:40.203Z,97.14
2018-06-10T00:59:20.694Z,96.65
2018-06-10T01:00:01.170Z,96.65
2018-06-10T01:00:41.675Z,96.46
2018-06-10T01:01:22.124Z,96.26
2018-06-10T01:02:02.647Z,96.46
2018-06-10T01:02:43.136Z,96.46
2018-06-10T01:03:23.628Z,96.84
2018-06-10T01:04:04.153Z,95.98
2018-06-10T01:04:44.614Z,96.02
2018-06-10T01:05:25.538Z,96.12
2018-06-10T01:06:06.028Z,96.02
2018-06-10T01:06:46.551Z,95.78
2018-06-10T01:07:27.042Z,95.88
2018-06-10T01:08:07.533Z,95.78
2018-06-10T01:08:48.032Z,95.98
2018-06-10T01:09:28.499Z,95.4
2018-06-10T01:10:09.028Z,95.98
2018-06-10T01:10:49.489Z,95.88
2018-06-10T01:11:30.044Z,95.4
2018-06-10T01:12:10.579Z,94.91
2018-06-10T01:12:51.051Z,95.01
2018-06-10T01:13:31.548Z,95.1
2018-06-10T01:14:11.996Z,95.1
2018-06-10T01:14:52.492Z,94.91
2018-06-10T01:15:32.958Z,95.1
2018-06-10T01:16:13.417Z,95.25
2018-06-10T01:16:53.931Z,95.01
2018-06-10T01:17:34.401Z,95.1
2018-06-10T01:18:14.885Z,95.01
2018-06-10T01:18:55.402Z,94.48
2018-06-10T01:19:35.860Z,94.67
2018-06-10T01:20:16.392Z,94.43
2018-06-10T01:20:56.868Z,94.33
2018-06-10T01:21:37.372Z,94.14
2018-06-10T01:22:17.913Z,94.53
2018-06-10T01:22:58.366Z,94.33
2018-06-10T01:23:38.843Z,94.62
2018-06-10T01:24:19.359Z,94.43
2018-06-10T01:24:59.865Z,94.62
2018-06-10T01:25:40.373Z,94.33
2018-06-10T01:26:20.866Z,94.24
2018-06-10T01:27:01.375Z,94.33
2018-06-10T01:27:41.875Z,94.33
2018-06-10T01:28:22.408Z,94.62
2018-06-10T01:29:02.851Z,94.53
2018-06-10T01:29:43.397Z,94.33
2018-06-10T01:30:23.864Z,94.14
2018-06-10T01:31:04.358Z,94.43
2018-06-10T01:31:44.851Z,95.01
2018-06-10T01:32:25.388Z,95.01
2018-06-10T01:33:05.855Z,94.82
2018-06-10T01:33:46.381Z,95.1
2018-06-10T01:34:26.927Z,94.91
2018-06-10T01:35:07.376Z,95.01
2018-06-10T01:35:47.854Z,94.43
2018-06-10T01:36:28.369Z,94.48
2018-06-10T01:37:08.864Z,94.57
2018-06-10T01:37:49.330Z,94.43
2018-06-10T01:38:29.901Z,94.14
2018-06-10T01:39:10.393Z,94.43
2018-06-10T01:39:50.875Z,94.76
2018-06-10T01:40:31.390Z,94.72
2018-06-10T01:41:11.923Z,95.2
2018-06-10T01:41:52.450Z,94.14
2018-06-10T01:42:33.043Z,94.24
2018-06-10T01:43:13.503Z,94.67
2018-06-10T01:43:54.019Z,94.43
2018-06-10T01:44:34.514Z,94.53
2018-06-10T01:45:14.956Z,94.04
2018-06-10T01:45:55.492Z,94.14
2018-06-10T01:46:35.990Z,94.62
2018-06-10T01:47:16.427Z,94.24
2018-06-10T01:47:56.931Z,94.24
2018-06-10T01:48:37.412Z,94.43
2018-06-10T01:49:17.925Z,94.33
2018-06-10T01:49:58.463Z,94.72
2018-06-10T01:50:38.912Z,94.62
2018-06-10T01:51:19.438Z,94.43
2018-06-10T01:51:59.899Z,94.62
2018-06-10T01:52:40.402Z,94.24
2018-06-10T01:53:20.920Z,94.82
2018-06-10T01:54:01.442Z,94.57
2018-06-10T01:54:41.942Z,94.53
2018-06-10T01:55:23.338Z,94.62
2018-06-10T01:56:03.931Z,94.72
2018-06-10T01:56:44.378Z,94.43
2018-06-10T01:57:24.912Z,94.24
2018-06-10T01:58:05.369Z,94.43
2018-06-10T01:58:45.890Z,94.24
2018-06-10T01:59:26.396Z,94.53
2018-06-10T02:00:06.912Z,95.25
2018-06-10T02:00:47.372Z,94.96
2018-06-10T02:01:28.494Z,94.96
2018-06-10T02:02:09.007Z,94.96
2018-06-10T02:02:49.492Z,95.35
2018-06-10T02:03:29.999Z,94.96
2018-06-10T02:04:10.524Z,95.15
2018-06-10T02:04:50.999Z,95.15
2018-06-10T02:05:31.456Z,95.15
2018-06-10T02:06:11.967Z,94.77
2018-06-10T02:06:52.546Z,95.06
2018-06-10T02:07:33.025Z,94.96
2018-06-10T02:08:13.659Z,95.25
2018-06-10T02:08:54.080Z,95.06
2018-06-10T02:09:34.644Z,94.96
2018-06-10T02:10:15.136Z,95.06
2018-06-10T02:10:55.562Z,94.57
2018-06-10T02:11:36.089Z,94.38
2018-06-10T02:12:16.560Z,94.09
2018-06-10T02:12:57.041Z,94.29
2018-06-10T02:13:37.553Z,94.57
2018-06-10T02:14:18.050Z,94.87
2018-06-10T02:14:58.637Z,94.77
2018-06-10T02:15:39.102Z,94.77
2018-06-10T02:16:19.630Z,95.35
2018-06-10T02:17:00.134Z,94.77
2018-06-10T02:17:40.630Z,95.06
2018-06-10T02:18:21.174Z,94.87
2018-06-10T02:19:01.678Z,94.87
2018-06-10T02:19:42.178Z,94.48
2018-06-10T02:20:22.684Z,94.29
2018-06-10T02:21:03.151Z,94.96
2018-06-10T02:21:43.671Z,95.06
2018-06-10T02:22:24.156Z,94.67
2018-06-10T02:23:04.760Z,94.96
2018-06-10T02:23:45.179Z,94.48
2018-06-10T02:24:25.658Z,94.29
2018-06-10T02:25:06.198Z,94.19
2018-06-10T02:25:46.617Z,94.57
2018-06-10T02:26:27.116Z,94.38
2018-06-10T02:27:07.626Z,94.19
2018-06-10T02:27:48.369Z,93.61
2018-06-10T02:28:28.931Z,94.38
2018-06-10T02:29:09.399Z,93.99
2018-06-10T02:29:49.869Z,94.19
2018-06-10T02:30:30.437Z,93.8
2018-06-10T02:31:10.929Z,93.9
2018-06-10T02:31:51.434Z,93.56
2018-06-10T02:32:31.943Z,93.51
2018-06-10T02:33:12.485Z,93.56
2018-06-10T02:33:53.373Z,93.41
2018-06-10T02:34:33.593Z,94.29
2018-06-10T02:35:14.072Z,93.8
2018-06-10T02:35:54.589Z,93.99
2018-06-10T02:36:35.135Z,94.09
2018-06-10T02:37:15.564Z,93.9
2018-06-10T02:37:56.081Z,94.09
2018-06-10T02:38:36.596Z,93.9
2018-06-10T02:39:17.030Z,94.29
2018-06-10T02:39:57.480Z,94.38
2018-06-10T02:40:38.034Z,94.09
2018-06-10T02:41:18.508Z,94.29
2018-06-10T02:41:59.240Z,94.24
2018-06-10T02:42:39.765Z,94.09
2018-06-10T02:43:20.231Z,93.51
2018-06-10T02:44:00.729Z,93.51
2018-06-10T02:44:41.246Z,93.41
2018-06-10T02:45:21.719Z,94.29
2018-06-10T02:46:02.226Z,93.99
2018-06-10T02:46:42.670Z,93.61
2018-06-10T02:47:23.185Z,93.13
2018-06-10T02:48:03.668Z,93.13
2018-06-10T02:48:44.262Z,93.41
2018-06-10T02:49:24.721Z,93.8
2018-06-10T02:50:05.206Z,93.61
2018-06-10T02:50:45.694Z,94.09
2018-06-10T02:51:26.195Z,93.99
2018-06-10T02:52:06.717Z,94.48
2018-06-10T02:52:47.163Z,93.8
2018-06-10T02:53:27.670Z,94.19
2018-06-10T02:54:08.146Z,93.99
2018-06-10T02:54:48.607Z,93.99
2018-06-10T02:55:29.088Z,94.29
2018-06-10T02:56:09.643Z,93.8
2018-06-10T02:56:50.074Z,93.99
2018-06-10T02:57:30.567Z,93.8
2018-06-10T02:58:11.052Z,94.48
2018-06-10T02:58:51.512Z,93.99
2018-06-10T02:59:32.051Z,93.99
2018-06-10T03:00:12.594Z,93.8
2018-06-10T03:00:53.035Z,94.57
2018-06-10T03:01:33.577Z,94.29
2018-06-10T03:02:14.276Z,94.29
2018-06-10T03:02:54.825Z,93.71
2018-06-10T03:03:35.300Z,94.38
2018-06-10T03:04:15.773Z,94.77
2018-06-10T03:04:56.519Z,94.67
2018-06-10T03:05:36.927Z,94.09
2018-06-10T03:06:17.404Z,94.09
2018-06-10T03:06:57.939Z,93.99
2018-06-10T03:07:38.441Z,94.09
2018-06-10T03:08:18.932Z,93.9
2018-06-10T03:08:59.620Z,94.38
2018-06-10T03:09:40.063Z,94.67
2018-06-10T03:10:20.638Z,94.09
2018-06-10T03:11:01.063Z,95.06
2018-06-10T03:11:41.598Z,94.57
2018-06-10T03:12:22.080Z,94.48
2018-06-10T03:13:02.554Z,94.67
2018-06-10T03:13:43.107Z,94.19
2018-06-10T03:14:23.592Z,94.38
2018-06-10T03:15:04.042Z,94.29
2018-06-10T03:15:44.603Z,94.38
2018-06-10T03:16:25.199Z,94.09
2018-06-10T03:17:05.659Z,95.45
2018-06-10T03:17:46.153Z,95.06
2018-06-10T03:18:26.620Z,94.38
2018-06-10T03:19:07.166Z,94.19
2018-06-10T03:19:47.620Z,95.06
2018-06-10T03:20:28.243Z,95.06
2018-06-10T03:21:08.616Z,94.29
2018-06-10T03:21:49.113Z,93.8
2018-06-10T03:22:29.605Z,94.38
2018-06-10T03:23:10.115Z,93.99
2018-06-10T03:23:50.552Z,93.99
2018-06-10T03:24:31.071Z,94.48
2018-06-10T03:25:11.542Z,93.99
2018-06-10T03:25:52.056Z,94.29
2018-06-10T03:26:32.576Z,94.38
2018-06-10T03:27:13.071Z,94.29
2018-06-10T03:27:53.556Z,94.09
2018-06-10T03:28:34.057Z,93.9
2018-06-10T03:29:14.554Z,93.8
2018-06-10T03:29:55.267Z,94.09
2018-06-10T03:30:35.829Z,94.29
2018-06-10T03:31:16.264Z,94.19
2018-06-10T03:31:56.821Z,94.09
2018-06-10T03:32:37.479Z,93.99
2018-06-10T03:33:17.773Z,94.29
2018-06-10T03:33:58.293Z,94.38
2018-06-10T03:34:38.768Z,93.9
2018-06-10T03:35:19.251Z,93.9
2018-06-10T03:35:59.772Z,94.38
2018-06-10T03:36:40.300Z,93.8
2018-06-10T03:37:20.842Z,93.99
2018-06-10T03:38:01.288Z,94.67
2018-06-10T03:38:41.783Z,94.48
2018-06-10T03:39:22.299Z,94.67
2018-06-10T03:40:02.780Z,94.67
2018-06-10T03:40:43.289Z,93.99
2018-06-10T03:41:23.836Z,94.09
2018-06-10T03:42:04.516Z,94.19
2018-06-10T03:42:45.259Z,94.57
2018-06-10T03:43:25.787Z,94.57
2018-06-10T03:44:06.318Z,94.29
2018-06-10T03:44:46.761Z,94.48
2018-06-10T03:45:27.256Z,94.19
2018-06-10T03:46:07.792Z,93.8
2018-06-10T03:46:48.265Z,94.38
2018-06-10T03:47:28.757Z,94.19
2018-06-10T03:48:09.354Z,93.27
2018-06-10T03:48:49.809Z,93.46
2018-06-10T03:49:30.349Z,93.99
2018-06-10T03:50:10.836Z,94.19
2018-06-10T03:50:51.309Z,93.99
2018-06-10T03:51:31.776Z,94.09
2018-06-10T03:52:12.246Z,93.41
2018-06-10T03:52:52.813Z,93.66
2018-06-10T03:53:33.249Z,93.37
2018-06-10T03:54:13.786Z,93.56
2018-06-10T03:54:54.303Z,93.46
2018-06-10T03:55:34.938Z,93.27
2018-06-10T03:56:15.413Z,93.17
2018-06-10T03:56:55.948Z,93.08
2018-06-10T03:57:36.416Z,93.17
2018-06-10T03:58:16.874Z,92.69
2018-06-10T03:58:57.399Z,92.55
2018-06-10T03:59:37.906Z,92.88
2018-06-10T04:00:18.396Z,93.08
2018-06-10T04:00:58.892Z,93.51
2018-06-10T04:01:39.396Z,92.88
2018-06-10T04:02:19.879Z,92.98
2018-06-10T04:03:00.373Z,92.98
2018-06-10T04:03:40.896Z,92.98
2018-06-10T04:04:21.385Z,92.98
2018-06-10T04:05:01.845Z,92.79
2018-06-10T04:05:42.507Z,92.49
2018-06-10T04:06:22.964Z,92.11
2018-06-10T04:07:03.496Z,91.91
2018-06-10T04:07:43.978Z,91.72
2018-06-10T04:08:24.496Z,91.77
2018-06-10T04:09:05.007Z,91.96
2018-06-10T04:09:45.487Z,91.38
2018-06-10T04:10:25.965Z,91.63
2018-06-10T04:11:06.421Z,91.72
2018-06-10T04:11:46.978Z,91.48
2018-06-10T04:12:27.494Z,91.38
2018-06-10T04:13:07.988Z,90.99
2018-06-10T04:13:48.505Z,90.7
2018-06-10T04:14:28.966Z,90.51
2018-06-10T04:15:09.574Z,91.09
2018-06-10T04:15:50.038Z,90.22
2018-06-10T04:16:30.543Z,90.7
2018-06-10T04:17:11.025Z,90.8
2018-06-10T04:17:51.503Z,90.51
2018-06-10T04:18:31.985Z,90.8
2018-06-10T04:19:12.503Z,90.61
2018-06-10T04:19:53.032Z,90.12
2018-06-10T04:20:33.515Z,90.41
2018-06-10T04:21:14.040Z,90.22
2018-06-10T04:21:54.551Z,90.03
2018-06-10T04:22:35.092Z,89.97
2018-06-10T04:23:15.526Z,89.54
2018-06-10T04:23:56.050Z,89.45
2018-06-10T04:24:36.602Z,89.15
2018-06-10T04:25:17.135Z,89.45
2018-06-10T04:25:57.581Z,89.01
2018-06-10T04:26:38.072Z,89.29
2018-06-10T04:27:18.592Z,89.11
2018-06-10T04:27:59.077Z,89.06
2018-06-10T04:28:39.596Z,89.06
2018-06-10T04:30:52.411Z,88.33
2018-06-10T04:31:32.913Z,88.43
2018-06-10T04:32:13.428Z,88.13
2018-06-10T04:32:53.907Z,88.53
2018-06-10T04:33:34.402Z,88.43
2018-06-10T04:34:14.909Z,88.43
2018-06-10T04:34:55.403Z,88.53
2018-06-10T04:35:35.869Z,88.43
2018-06-10T04:36:16.396Z,87.85
2018-06-10T04:36:56.904Z,87.85
2018-06-10T04:37:37.779Z,87.75
2018-06-10T04:38:18.263Z,87.85
2018-06-10T04:38:58.790Z,87.6
2018-06-10T04:39:39.324Z,87.02
2018-06-10T04:40:19.814Z,86.09
2018-06-10T04:41:00.285Z,84.45
2018-06-10T04:41:40.809Z,84.1
2018-06-10T04:42:21.282Z,83.91
2018-06-10T04:43:01.771Z,84.45
2018-06-10T04:43:42.255Z,84.83
2018-06-10T04:44:22.763Z,84.93
2018-06-10T04:45:03.259Z,84.93
2018-06-10T04:45:43.787Z,85.13
2018-06-10T04:46:24.272Z,84.99
2018-06-10T04:47:04.795Z,85.8
2018-06-10T04:47:45.281Z,84.93
2018-06-10T04:48:25.717Z,85.31
2018-06-10T04:49:06.232Z,85.71
2018-06-10T04:49:46.728Z,85.61
2018-06-10T04:50:27.225Z,85.8
2018-06-10T04:51:07.692Z,85.37
2018-06-10T04:51:48.238Z,84.93
2018-06-10T04:52:28.704Z,84.74
2018-06-10T04:53:09.231Z,83.96
2018-06-10T04:53:49.741Z,83.67
2018-06-10T04:54:30.252Z,82.94
2018-06-10T04:55:10.760Z,82.45
2018-06-10T04:55:51.322Z,82.84
2018-06-10T04:56:31.764Z,82.65
2018-06-10T04:57:12.353Z,83.33
2018-06-10T04:57:52.793Z,83.96
2018-06-10T04:58:33.273Z,83.86
2018-06-10T04:59:13.756Z,83.77
2018-06-10T04:59:54.231Z,83.77
2018-06-10T05:00:34.711Z,83.77
2018-06-10T05:01:15.226Z,83.28
2018-06-10T05:01:55.840Z,83.18
2018-06-10T05:02:36.315Z,83.58
2018-06-10T05:03:16.776Z,84.16
2018-06-10T05:03:57.301Z,83.67
2018-06-10T05:04:37.894Z,83.77
2018-06-10T05:05:18.214Z,83.86
2018-06-10T05:05:58.748Z,83.58
2018-06-10T05:06:39.300Z,83.58
2018-06-10T05:07:19.812Z,83.96
2018-06-10T05:08:00.409Z,83.77
2018-06-10T05:08:40.993Z,83.86
2018-06-10T05:09:21.464Z,83.48
2018-06-10T05:10:02.252Z,83.38
2018-06-10T05:10:42.817Z,83.13
2018-06-10T05:11:23.307Z,83.33
2018-06-10T05:12:03.762Z,82.84
2018-06-10T05:12:44.280Z,83.23
2018-06-10T05:13:24.774Z,83.42
2018-06-10T05:14:05.268Z,82.26
2018-06-10T05:14:45.829Z,82.45
2018-06-10T05:15:26.363Z,82.1
2018-06-10T05:16:06.854Z,81.82
2018-06-10T05:16:47.494Z,82.35
2018-06-10T05:17:28.058Z,82.65
2018-06-10T05:18:08.561Z,82.65
2018-06-10T05:18:48.997Z,82.55
2018-06-10T05:19:29.482Z,82.26
2018-06-10T05:20:10.252Z,82.26
2018-06-10T05:20:50.709Z,82.35
2018-06-10T05:21:31.199Z,82.2
2018-06-10T05:22:11.679Z,82.17
2018-06-10T05:22:52.165Z,82.35
2018-06-10T05:23:32.660Z,81.58
2018-06-10T05:24:13.133Z,82.3
2018-06-10T05:24:53.716Z,81.52
2018-06-10T05:25:34.178Z,82.35
2018-06-10T05:26:14.823Z,81.97
2018-06-10T05:26:55.485Z,82.4
2018-06-10T05:27:35.969Z,82.45
2018-06-10T05:28:16.548Z,81.97
2018-06-10T05:28:57.047Z,82.55
2018-06-10T05:29:37.569Z,81.97
2018-06-10T05:30:18.268Z,81.62
2018-06-10T05:30:58.789Z,81.48
2018-06-10T05:31:39.295Z,81.72
2018-06-10T05:32:19.778Z,81.91
2018-06-10T05:33:00.261Z,81.87
2018-06-10T05:33:40.749Z,81.77
2018-06-10T05:34:21.503Z,81.58
2018-06-10T05:35:01.979Z,81.62
2018-06-10T05:35:42.484Z,82.35
2018-06-10T05:36:23.158Z,81.52
2018-06-10T05:37:03.777Z,82.17
2018-06-10T05:37:44.261Z,82.55
2018-06-10T05:38:24.743Z,82.45
2018-06-10T05:39:05.239Z,82.2
2018-06-10T05:39:45.728Z,82.35
2018-06-10T05:40:26.230Z,82.5
2018-06-10T05:41:06.718Z,81.97
2018-06-10T05:41:47.239Z,81.13
2018-06-10T05:42:27.684Z,81.77
2018-06-10T05:43:08.228Z,82.07
2018-06-10T05:43:48.706Z,82.35
2018-06-10T05:44:29.216Z,82.45
2018-06-10T05:45:09.679Z,82.07
2018-06-10T05:45:50.185Z,82.17
2018-06-10T05:46:30.914Z,82.17
2018-06-10T05:47:11.419Z,82.35
2018-06-10T05:47:51.864Z,82.35
2018-06-10T05:48:32.334Z,82.55
2018-06-10T05:49:12.860Z,82.35
2018-06-10T05:49:53.443Z,82.4
2018-06-10T05:50:34.027Z,82.01
2018-06-10T05:51:14.557Z,81.23
2018-06-10T05:51:55.020Z,81.62
2018-06-10T05:52:35.541Z,81.62
2018-06-10T05:53:16.005Z,81.43
2018-06-10T05:53:56.527Z,79.08
2018-06-10T05:54:37.083Z,77.22
2018-06-10T05:55:17.584Z,74.71
2018-06-10T05:55:58.073Z,73.05
2018-06-10T05:56:38.578Z,72.37
2018-06-10T05:57:19.268Z,72.02
2018-06-10T05:57:59.769Z,71.62
2018-06-10T05:58:40.262Z,71.72
2018-06-10T05:59:20.743Z,71.92
2018-06-10T06:00:01.261Z,71.4
2018-06-10T06:00:41.770Z,72.11
2018-06-10T06:01:22.298Z,71.92
2018-06-10T06:02:02.932Z,71.82
2018-06-10T06:02:43.429Z,71.72
2018-06-10T06:03:24.156Z,71.53
2018-06-10T06:04:04.464Z,71.33
2018-06-10T06:04:44.915Z,71.23
2018-06-10T06:05:25.403Z,70.75
2018-06-10T06:06:05.979Z,70.75
2018-06-10T06:06:46.436Z,70.36
2018-06-10T06:07:26.894Z,71.14
2018-06-10T06:08:07.472Z,70.75
2018-06-10T06:08:47.911Z,70.85
2018-06-10T06:09:28.404Z,70.4
2018-06-10T06:10:08.855Z,71.14
2018-06-10T06:10:49.486Z,70.85
2018-06-10T06:11:29.846Z,71.08
2018-06-10T06:12:10.362Z,70.5
2018-06-10T06:12:50.811Z,70.2
2018-06-10T06:13:31.411Z,69.91
2018-06-10T06:14:11.915Z,70.4
2018-06-10T06:14:52.402Z,70.3
2018-06-10T06:15:32.944Z,70.68
2018-06-10T06:16:13.440Z,70.5
2018-06-10T06:16:53.925Z,70.5
2018-06-10T06:17:34.391Z,70.59
2018-06-10T06:18:14.900Z,70.5
2018-06-10T06:19:02.301Z,70.3
2018-06-10T06:19:40.271Z,69.62
2018-06-10T06:20:20.717Z,70.01
2018-06-10T06:21:01.200Z,69.26
2018-06-10T06:21:41.707Z,69.23
2018-06-10T06:22:22.239Z,69.71
2018-06-10T06:23:02.841Z,70.3
2018-06-10T06:23:43.312Z,69.71
2018-06-10T06:24:23.884Z,69.71
2018-06-10T06:25:04.352Z,70.2
2018-06-10T06:25:44.893Z,70.3
2018-06-10T06:26:25.390Z,70.2
2018-06-10T06:27:05.862Z,70.59
2018-06-10T06:27:46.350Z,70.59
2018-06-10T06:28:26.858Z,70.2
2018-06-10T06:29:07.366Z,70.2
2018-06-10T06:29:47.906Z,70.4
2018-06-10T06:30:28.443Z,69.62
2018-06-10T06:31:08.944Z,69.52
2018-06-10T06:31:49.411Z,70.3
2018-06-10T06:32:29.958Z,70.3
2018-06-10T06:33:10.561Z,70.2
2018-06-10T06:33:51.015Z,69.71
2018-06-10T06:34:31.516Z,69.81
2018-06-10T06:35:12.055Z,69.81
2018-06-10T06:35:52.505Z,70.2
2018-06-10T06:36:32.996Z,69.32
2018-06-10T06:37:13.517Z,69.13
2018-06-10T06:37:53.960Z,70.2
2018-06-10T06:38:34.436Z,69.71
2018-06-10T06:39:14.937Z,70.2
2018-06-10T06:39:55.500Z,70.2
2018-06-10T06:40:36.045Z,70.1
2018-06-10T06:41:16.529Z,69.81
2018-06-10T06:41:57.172Z,69.23
2018-06-10T06:42:37.541Z,69.13
2018-06-10T06:43:17.983Z,69.36
2018-06-10T06:43:58.767Z,69.46
2018-06-10T06:44:39.259Z,69.26
2018-06-10T06:45:19.780Z,69.56
2018-06-10T06:46:00.332Z,69.26
2018-06-10T06:46:40.804Z,69.17
2018-06-10T06:47:21.296Z,69.07
2018-06-10T06:48:01.925Z,69.2
2018-06-10T06:48:42.337Z,69.46
2018-06-10T06:49:22.858Z,69.26
2018-06-10T06:50:03.278Z,69.26
2018-06-10T06:50:43.801Z,69.17
2018-06-10T06:51:24.333Z,69.75
2018-06-10T06:52:04.843Z,69.07
2018-06-10T06:52:45.384Z,69.36
2018-06-10T06:53:25.904Z,69.36
2018-06-10T06:54:06.413Z,69.26
2018-06-10T06:54:46.906Z,69.36
2018-06-10T06:55:27.608Z,69.26
2018-06-10T06:56:08.113Z,69.56
2018-06-10T06:56:48.553Z,69.07
2018-06-10T06:57:29.137Z,69.29
2018-06-10T06:58:09.541Z,69.07
2018-06-10T06:58:50.132Z,69.17
2018-06-10T06:59:30.600Z,69.49
2018-06-10T07:00:11.092Z,69.29
2018-06-10T07:00:51.597Z,69.1
2018-06-10T07:01:32.100Z,69.2
2018-06-10T07:02:12.610Z,69
2018-06-10T07:02:53.141Z,69.29
2018-06-10T07:03:33.641Z,69.39
2018-06-10T07:04:14.159Z,69.29
2018-06-10T07:04:54.610Z,69.56
2018-06-10T07:05:35.119Z,70.62
2018-06-10T07:06:15.645Z,70.53
2018-06-10T07:06:56.193Z,70.14
2018-06-10T07:07:36.913Z,70.62
2018-06-10T07:08:17.396Z,70.43
2018-06-10T07:08:57.888Z,70.53
2018-06-10T07:09:38.358Z,70.43
2018-06-10T07:10:18.868Z,70.53
2018-06-10T07:10:59.409Z,70.62
2018-06-10T07:11:39.854Z,70.62
2018-06-10T07:12:20.411Z,71.41
2018-06-10T07:13:01.278Z,71.56
2018-06-10T07:13:41.840Z,71.76
2018-06-10T07:14:22.369Z,71.86
2018-06-10T07:15:03.011Z,71.56
2018-06-10T07:15:43.823Z,71.86
2018-06-10T07:16:24.318Z,71.5
2018-06-10T07:17:04.766Z,71.56
2018-06-10T07:17:45.290Z,71.21
2018-06-10T07:18:25.772Z,71.11
2018-06-10T07:19:06.341Z,70.92
2018-06-10T07:19:46.871Z,70.92
2018-06-10T07:20:27.313Z,70.76
2018-06-10T07:21:07.778Z,70.17
2018-06-10T07:21:48.303Z,70.66
2018-06-10T07:22:28.800Z,71.44
2018-06-10T07:23:09.346Z,71.21
2018-06-10T07:23:49.860Z,71.01
2018-06-10T07:24:30.308Z,71.11
2018-06-10T07:25:10.865Z,71.34
2018-06-10T07:25:51.357Z,71.31
2018-06-10T07:26:31.817Z,71.5
2018-06-10T07:27:12.319Z,71.21
2018-06-10T07:27:54.254Z,71.5
2018-06-10T07:28:34.801Z,71.05
2018-06-10T07:29:15.388Z,70.62
2018-06-10T07:29:55.847Z,70.95
2018-06-10T07:30:36.355Z,70.53
2018-06-10T07:31:16.788Z,71.01
2018-06-10T07:31:57.327Z,71.31
2018-06-10T07:32:38.249Z,71.6
2018-06-10T07:33:18.808Z,71.95
2018-06-10T07:33:59.750Z,72.09
2018-06-10T07:34:41.082Z,72.09
2018-06-10T07:35:21.580Z,71.41
2018-06-10T07:36:02.349Z,72.28
2018-06-10T07:36:42.835Z,71.41
2018-06-10T07:37:23.403Z,71.44
2018-06-10T07:38:03.835Z,70.86
2018-06-10T07:38:44.344Z,71.21
2018-06-10T07:39:24.975Z,71.44
2018-06-10T07:40:05.842Z,71.54
2018-06-10T07:40:47.150Z,70.92
2018-06-10T07:41:27.903Z,71.99
2018-06-10T07:42:08.393Z,72.28
2018-06-10T07:42:48.922Z,71.56
2018-06-10T07:43:29.566Z,72.09
2018-06-10T07:44:09.963Z,71.99
2018-06-10T07:44:50.422Z,71.31
2018-06-10T07:45:30.906Z,71.6
2018-06-10T07:46:12.215Z,71.99
2018-06-10T07:46:52.577Z,72.09
2018-06-10T07:47:33.479Z,71.99
2018-06-10T07:48:14.314Z,72.28
2018-06-10T07:48:54.804Z,72.73
2018-06-10T07:49:35.277Z,72.57
2018-06-10T07:51:36.902Z,72.28
2018-06-10T07:52:18.766Z,71.83
2018-06-10T07:52:59.407Z,71.83
2018-06-10T07:53:40.358Z,71.64
2018-06-10T07:54:20.885Z,71.34
2018-06-10T07:55:01.596Z,70.95
2018-06-10T07:55:42.115Z,71.89
2018-06-10T07:56:26.020Z,71.89
2018-06-10T07:58:22.518Z,71.41
2018-06-10T07:59:04.255Z,70.37
2018-06-10T07:59:45.105Z,71.34
2018-06-10T08:00:25.550Z,71.73
2018-06-10T08:01:06.126Z,71.25
2018-06-10T08:01:51.859Z,71.83
2018-06-10T08:02:32.980Z,71.05
2018-06-10T08:03:13.899Z,70.76
2018-06-10T08:03:54.366Z,70.37
2018-06-10T08:04:35.550Z,71.01
2018-06-10T08:05:16.025Z,71.89
2018-06-10T08:05:57.207Z,71.89
2018-06-10T08:06:39.802Z,72.83
2018-06-10T08:07:22.296Z,72.44
2018-06-10T08:08:02.297Z,72.73
2018-06-10T08:08:44.199Z,73.32
2018-06-10T08:09:26.134Z,73.12
2018-06-10T08:10:09.893Z,73.12
2018-06-10T08:10:50.633Z,73.51
2018-06-10T08:11:31.123Z,73.12
2018-06-10T08:12:11.586Z,72.83
2018-06-10T08:12:52.091Z,73.41
2018-06-10T08:13:33.493Z,72.92
2018-06-10T08:14:13.180Z,73.41
2018-06-10T08:14:53.795Z,72.67
2018-06-10T08:15:34.192Z,71.6
2018-06-10T08:16:15.198Z,71.99
2018-06-10T08:16:55.711Z,71.89
2018-06-10T08:17:36.583Z,71.8
2018-06-10T08:18:17.049Z,71.31
2018-06-10T08:18:57.573Z,70.62
2018-06-10T08:19:39.275Z,70.53
2018-06-10T08:20:19.810Z,70.53
2018-06-10T08:21:00.883Z,71.6
2018-06-10T08:21:41.509Z,71.86
2018-06-10T08:22:22.260Z,72.34
2018-06-10T08:23:04.868Z,72.54
2018-06-10T08:23:45.461Z,72.73
2018-06-10T08:24:25.916Z,72.25
2018-06-10T08:25:06.402Z,73.02
2018-06-10T08:25:46.962Z,72.54
2018-06-10T08:26:27.798Z,72.25
2018-06-10T08:27:09.191Z,72.54
2018-06-10T08:27:51.160Z,72.64
2018-06-10T08:28:32.593Z,72.34
2018-06-10T08:29:16.516Z,72.25
2018-06-10T08:30:00.907Z,72.83
2018-06-10T08:30:42.035Z,73.32
2018-06-10T08:31:23.767Z,73.71
2018-06-10T08:32:04.430Z,73.41
2018-06-10T08:32:45.341Z,73.8
2018-06-10T08:33:27.960Z,73.32
2018-06-10T08:34:09.341Z,73.9
2018-06-10T08:34:49.987Z,73.47
2018-06-10T08:35:30.627Z,73.67
2018-06-10T08:36:11.083Z,75.03
2018-06-10T08:36:55.366Z,74.06
2018-06-10T08:37:36.841Z,74.84
2018-06-10T08:38:18.511Z,75.13
2018-06-10T08:38:58.651Z,74.84
2018-06-10T08:39:42.335Z,74.16
2018-06-10T08:40:22.054Z,74.55
2018-06-10T08:41:03.407Z,74.55
2018-06-10T08:41:46.811Z,75.03
2018-06-10T08:42:28.735Z,74.39
2018-06-10T08:43:10.186Z,74.19
2018-06-10T08:43:52.304Z,74.16
2018-06-10T08:44:32.511Z,73.96
2018-06-10T08:45:14.720Z,73.67
2018-06-10T08:45:55.906Z,73.8
2018-06-10T08:46:36.456Z,74.06
2018-06-10T08:47:16.935Z,73.77
2018-06-10T08:47:57.653Z,73.96
2018-06-10T08:48:38.150Z,73.67
2018-06-10T08:49:18.695Z,73.77
2018-06-10T08:49:59.209Z,73.9